createdAt,value
2022-09-23T00:01:18.168Z,7.56
2022-09-23T00:03:46.309Z,7.57
2022-09-23T00:06:16.051Z,7.55
2022-09-23T00:08:44.090Z,7.58
2022-09-23T00:11:17.187Z,7.56
2022-09-23T00:13:46.151Z,7.57
2022-09-23T00:16:19.394Z,7.56
2022-09-23T00:18:46.414Z,7.53
2022-09-23T00:21:14.723Z,7.55
2022-09-23T00:23:43.024Z,7.55
2022-09-23T00:26:14.003Z,7.55
2022-09-23T00:28:40.783Z,7.53
2022-09-23T00:31:11.753Z,7.52
2022-09-23T00:33:40.726Z,7.50
2022-09-23T00:36:11.183Z,7.49
2022-09-23T00:38:39.041Z,7.51
2022-09-23T00:41:06.585Z,7.49
2022-09-23T00:43:58.005Z,7.48
2022-09-23T00:46:33.095Z,7.53
2022-09-23T00:49:25.118Z,7.50
2022-09-23T00:52:15.231Z,7.51
2022-09-23T00:54:43.092Z,7.48
2022-09-23T00:57:11.573Z,7.46
2022-09-23T00:59:39.205Z,7.46
2022-09-23T01:02:07.043Z,7.43
2022-09-23T01:04:34.795Z,7.41
2022-09-23T01:07:01.628Z,7.39
2022-09-23T01:09:28.840Z,7.39
2022-09-23T01:12:21.522Z,7.37
2022-09-23T01:14:57.599Z,7.28
2022-09-23T01:17:43.098Z,7.23
2022-09-23T01:20:24.854Z,7.20
2022-09-23T01:23:14.237Z,7.13
2022-09-23T01:26:22.299Z,7.10
2022-09-23T01:29:04.037Z,7.02
2022-09-23T01:32:07.032Z,6.91
2022-09-23T01:34:46.111Z,6.86
2022-09-23T01:37:25.041Z,6.80
2022-09-23T01:40:03.552Z,6.68
2022-09-23T01:43:05.675Z,6.62
2022-09-23T01:45:45.935Z,6.61
2022-09-23T01:48:18.518Z,6.61
2022-09-23T01:50:58.906Z,6.61
2022-09-23T01:53:48.994Z,6.55
2022-09-23T01:56:22.625Z,6.49
2022-09-23T01:59:02.543Z,6.41
2022-09-23T02:02:11.176Z,6.37
2022-09-23T02:04:50.527Z,6.39
2022-09-23T02:07:25.734Z,6.37
2022-09-23T02:10:02.834Z,6.32
2022-09-23T02:12:34.371Z,6.31
2022-09-23T02:15:07.578Z,6.28
2022-09-23T02:17:58.915Z,6.19
2022-09-23T02:20:30.406Z,6.20
2022-09-23T02:23:07.671Z,6.18
2022-09-23T02:25:45.283Z,6.12
2022-09-23T02:28:19.091Z,6.08
2022-09-23T02:30:51.766Z,6.03
2022-09-23T02:33:27.794Z,5.97
2022-09-23T02:36:01.273Z,5.95
2022-09-23T02:38:53.413Z,5.92
2022-09-23T02:41:34.762Z,5.89
2022-09-23T02:44:11.885Z,5.86
2022-09-23T02:46:39.271Z,5.79
2022-09-23T02:49:11.305Z,5.73
2022-09-23T02:51:39.378Z,5.71
2022-09-23T02:54:10.677Z,5.68
2022-09-23T02:56:39.153Z,5.63
2022-09-23T02:59:06.249Z,5.65
2022-09-23T03:01:59.252Z,5.66
2022-09-23T03:05:00.130Z,5.75
2022-09-23T03:07:55.061Z,5.77
2022-09-23T03:10:27.085Z,5.79
2022-09-23T03:13:19.319Z,5.78
2022-09-23T03:15:46.263Z,5.77
2022-09-23T03:18:19.279Z,5.79
2022-09-23T03:20:50.656Z,5.78
2022-09-23T03:23:25.237Z,5.77
2022-09-23T03:25:54.920Z,5.73
2022-09-23T03:28:25.459Z,5.68
2022-09-23T03:30:54.585Z,5.70
2022-09-23T03:33:28.478Z,5.75
2022-09-23T03:36:24.120Z,5.76
2022-09-23T03:38:54.905Z,5.77
2022-09-23T03:41:30.125Z,5.83
2022-09-23T03:43:59.568Z,5.91
2022-09-23T03:46:28.654Z,5.94
2022-09-23T03:49:16.440Z,5.96
2022-09-23T03:51:44.820Z,6.00
2022-09-23T03:54:12.199Z,6.04
2022-09-23T03:56:38.970Z,6.11
2022-09-23T03:59:08.084Z,6.19
2022-09-23T04:01:34.916Z,6.25
2022-09-23T04:04:01.965Z,6.29
2022-09-23T04:06:29.007Z,6.34
2022-09-23T04:08:55.857Z,6.40
2022-09-23T04:11:22.724Z,6.47
2022-09-23T04:13:49.865Z,6.57
2022-09-23T04:16:16.883Z,6.62
2022-09-23T04:18:43.828Z,6.67
2022-09-23T04:21:10.950Z,6.73
2022-09-23T04:23:37.785Z,6.78
2022-09-23T04:26:05.899Z,6.86
2022-09-23T04:28:34.392Z,6.92
2022-09-23T04:31:09.477Z,6.97
2022-09-23T04:33:37.733Z,7.04
2022-09-23T04:36:04.915Z,7.08
2022-09-23T04:38:32.042Z,7.14
2022-09-23T04:40:59.078Z,7.20
2022-09-23T04:43:26.190Z,7.23
2022-09-23T04:46:05.330Z,7.28
2022-09-23T04:48:33.905Z,7.33
2022-09-23T04:51:05.037Z,7.39
2022-09-23T04:53:33.118Z,7.45
2022-09-23T04:56:19.600Z,7.49
2022-09-23T04:58:47.209Z,7.54
2022-09-23T05:01:21.065Z,7.61
2022-09-23T05:03:48.020Z,7.64
2022-09-23T05:06:15.377Z,7.66
2022-09-23T05:08:48.471Z,7.72
2022-09-23T05:11:15.357Z,7.77
2022-09-23T05:13:42.424Z,7.80
2022-09-23T05:16:12.548Z,7.82
2022-09-23T05:18:42.794Z,7.86
2022-09-23T05:21:11.650Z,7.87
2022-09-23T05:23:40.090Z,7.87
2022-09-23T05:26:09.546Z,7.88
2022-09-23T05:28:37.627Z,7.91
2022-09-23T05:31:18.613Z,7.96
2022-09-23T05:33:55.491Z,8.02
2022-09-23T05:36:23.199Z,8.08
2022-09-23T05:38:51.427Z,8.13
2022-09-23T05:41:20.516Z,8.15
2022-09-23T05:43:47.525Z,8.21
2022-09-23T05:46:17.910Z,8.27
2022-09-23T05:48:46.799Z,8.31
2022-09-23T05:51:20.171Z,8.35
2022-09-23T05:53:48.484Z,8.37
2022-09-23T05:56:17.446Z,8.39
2022-09-23T05:58:45.148Z,8.37
2022-09-23T06:01:14.526Z,8.43
2022-09-23T06:03:41.408Z,8.44
2022-09-23T06:06:14.641Z,8.47
2022-09-23T06:08:42.280Z,8.55
2022-09-23T06:11:09.811Z,8.59
2022-09-23T06:13:38.324Z,8.61
2022-09-23T06:16:11.777Z,8.66
2022-09-23T06:18:40.532Z,8.71
2022-09-23T06:21:08.449Z,8.67
2022-09-23T06:23:37.998Z,8.68
2022-09-23T06:26:08.573Z,8.68
2022-09-23T06:28:40.732Z,8.74
2022-09-23T06:31:13.616Z,8.80
2022-09-23T06:33:43.209Z,8.87
2022-09-23T06:36:11.517Z,8.90
2022-09-23T06:38:40.294Z,8.92
2022-09-23T06:41:08.243Z,8.99
2022-09-23T06:43:35.151Z,9.05
2022-09-23T06:46:05.188Z,9.00
2022-09-23T06:48:35.805Z,9.07
2022-09-23T06:51:05.261Z,9.11
2022-09-23T06:53:32.379Z,9.20
2022-09-23T06:56:07.141Z,9.30
2022-09-23T06:58:36.267Z,9.44
2022-09-23T07:01:04.514Z,9.48
2022-09-23T07:03:32.112Z,9.51
2022-09-23T07:06:00.150Z,9.56
2022-09-23T07:08:29.104Z,9.67
2022-09-23T07:10:57.974Z,9.88
2022-09-23T07:13:25.372Z,10.10
2022-09-23T07:15:54.133Z,10.34
2022-09-23T07:18:25.645Z,10.55
2022-09-23T07:20:53.532Z,10.76
2022-09-23T07:23:21.090Z,10.99
2022-09-23T07:25:49.601Z,11.15
2022-09-23T07:28:16.525Z,11.27
2022-09-23T07:30:56.813Z,11.31
2022-09-23T07:33:33.359Z,11.49
2022-09-23T07:36:19.820Z,11.57
2022-09-23T07:38:47.580Z,11.47
2022-09-23T07:41:17.982Z,11.47
2022-09-23T07:43:47.807Z,11.62
2022-09-23T07:46:17.629Z,11.73
2022-09-23T07:48:46.030Z,11.83
2022-09-23T07:51:20.386Z,11.94
2022-09-23T07:53:49.313Z,12.01
2022-09-23T07:56:17.409Z,12.15
2022-09-23T07:58:44.649Z,12.31
2022-09-23T08:01:12.834Z,12.52
2022-09-23T08:03:39.954Z,12.75
2022-09-23T08:06:12.750Z,12.95
2022-09-23T08:08:43.525Z,13.16
2022-09-23T08:11:12.327Z,13.32
2022-09-23T08:13:39.352Z,13.52
2022-09-23T08:16:06.945Z,13.71
2022-09-23T08:18:33.927Z,13.78
2022-09-23T08:21:00.751Z,13.76
2022-09-23T08:23:28.004Z,13.87
2022-09-23T08:26:00.100Z,14.03
2022-09-23T08:28:28.474Z,14.04
2022-09-23T08:30:55.984Z,14.03
2022-09-23T08:33:23.809Z,14.03
2022-09-23T08:35:51.961Z,13.96
2022-09-23T08:38:20.669Z,13.90
2022-09-23T08:40:49.645Z,14.06
2022-09-23T08:43:27.452Z,14.27
2022-09-23T08:45:57.555Z,14.19
2022-09-23T08:48:43.895Z,14.14
2022-09-23T08:51:35.779Z,14.18
2022-09-23T08:54:02.914Z,14.15
2022-09-23T08:56:31.162Z,14.16
2022-09-23T08:59:21.093Z,14.06
2022-09-23T09:01:53.737Z,13.86
2022-09-23T09:04:37.653Z,13.71
2022-09-23T09:10:13.406Z,13.61
2022-09-23T09:12:45.042Z,13.61
2022-09-23T09:15:26.737Z,13.63
2022-09-23T09:18:13.919Z,13.62
2022-09-23T09:21:09.351Z,13.69
2022-09-23T09:23:44.959Z,13.88
2022-09-23T09:26:19.737Z,14.12
2022-09-23T09:28:52.296Z,14.36
2022-09-23T09:31:36.226Z,14.54
2022-09-23T09:34:12.086Z,14.65
2022-09-23T09:36:53.983Z,14.78
2022-09-23T09:39:25.966Z,15.02
2022-09-23T09:41:55.519Z,15.28
2022-09-23T09:44:42.769Z,15.51
2022-09-23T09:47:29.968Z,15.72
2022-09-23T09:50:09.739Z,15.95
2022-09-23T09:52:43.375Z,15.99
2022-09-23T09:55:13.108Z,15.96
2022-09-23T09:57:49.067Z,15.93
2022-09-23T10:00:35.696Z,15.64
2022-09-23T10:03:57.042Z,15.51
2022-09-23T10:06:29.135Z,15.41
2022-09-23T10:09:02.114Z,15.41
2022-09-23T10:11:30.620Z,15.46
2022-09-23T10:14:02.340Z,15.46
2022-09-23T10:16:31.879Z,15.43
2022-09-23T10:19:01.965Z,15.45
2022-09-23T10:21:36.879Z,15.56
2022-09-23T10:24:07.121Z,15.72
2022-09-23T10:26:42.527Z,15.89
2022-09-23T10:29:35.712Z,15.93
2022-09-23T10:32:38.760Z,16.08
2022-09-23T10:35:14.965Z,16.50
2022-09-23T10:37:41.758Z,16.99
2022-09-23T10:40:35.080Z,17.48
2022-09-23T10:43:39.391Z,17.79
2022-09-23T10:46:31.884Z,17.99
2022-09-23T10:49:09.071Z,18.38
2022-09-23T10:52:02.038Z,18.60
2022-09-23T10:54:28.789Z,18.59
2022-09-23T10:57:21.612Z,19.07
2022-09-23T11:00:02.964Z,20.50
2022-09-23T11:02:49.261Z,21.77
2022-09-23T11:05:38.275Z,22.20
2022-09-23T11:08:42.851Z,22.14
2022-09-23T11:11:19.793Z,21.98
2022-09-23T11:14:17.078Z,21.71
2022-09-23T11:17:03.812Z,21.66
2022-09-23T11:19:49.276Z,22.02
2022-09-23T11:22:16.166Z,22.34
2022-09-23T11:25:17.169Z,21.98
2022-09-23T11:27:53.630Z,21.75
2022-09-23T11:30:21.378Z,21.13
2022-09-23T11:35:47.799Z,19.50
2022-09-23T11:38:18.854Z,18.99
2022-09-23T11:40:54.916Z,18.66
2022-09-23T11:43:25.129Z,18.53
2022-09-23T11:46:10.227Z,18.06
2022-09-23T11:48:44.158Z,17.63
2022-09-23T11:51:18.645Z,17.14
2022-09-23T11:54:12.350Z,16.67
2022-09-23T11:56:47.962Z,16.39
2022-09-23T11:59:23.014Z,16.07
2022-09-23T12:02:11.512Z,15.69
2022-09-23T12:04:56.923Z,15.32
2022-09-23T12:07:36.551Z,14.85
2022-09-23T12:10:03.655Z,14.54
2022-09-23T12:12:51.889Z,14.06
2022-09-23T12:15:37.416Z,13.60
2022-09-23T12:18:47.697Z,13.29
2022-09-23T12:21:39.087Z,13.06
2022-09-23T12:24:07.815Z,12.87
2022-09-23T12:26:38.535Z,12.72
2022-09-23T12:29:06.935Z,12.43
2022-09-23T12:31:41.110Z,12.40
2022-09-23T12:34:34.498Z,12.46
2022-09-23T12:37:05.707Z,12.45
2022-09-23T12:39:38.642Z,12.54
2022-09-23T12:42:19.493Z,12.73
2022-09-23T12:44:48.759Z,12.89
2022-09-23T12:47:25.017Z,13.08
2022-09-23T12:49:53.307Z,13.26
2022-09-23T12:52:20.263Z,13.45
2022-09-23T12:54:49.412Z,13.71
2022-09-23T12:57:34.422Z,13.85
2022-09-23T13:00:11.302Z,13.86
2022-09-23T13:03:11.513Z,13.85
2022-09-23T13:06:20.205Z,13.89
2022-09-23T13:08:49.417Z,14.06
2022-09-23T13:11:28.325Z,14.23
2022-09-23T13:13:59.791Z,14.26
2022-09-23T13:16:33.087Z,14.34
2022-09-23T13:19:02.598Z,14.53
2022-09-23T13:21:45.864Z,14.66
2022-09-23T13:24:31.242Z,14.57
2022-09-23T13:27:22.113Z,14.34
2022-09-23T13:30:25.066Z,14.27
2022-09-23T13:33:17.170Z,14.34
2022-09-23T13:35:50.822Z,14.49
2022-09-23T13:38:26.346Z,14.52
2022-09-23T13:41:25.285Z,14.50
2022-09-23T13:43:56.334Z,14.43
2022-09-23T13:46:25.098Z,14.22
2022-09-23T13:48:56.628Z,13.99
2022-09-23T13:51:27.793Z,13.80
2022-09-23T13:53:56.602Z,13.72
2022-09-23T13:56:26.542Z,13.58
2022-09-23T13:58:55.938Z,13.54
2022-09-23T14:01:34.870Z,13.36
2022-09-23T14:04:04.921Z,13.13
2022-09-23T14:06:32.287Z,12.92
2022-09-23T14:09:01.461Z,12.86
2022-09-23T14:11:32.068Z,12.89
2022-09-23T14:14:03.709Z,12.83
2022-09-23T14:16:30.848Z,12.68
2022-09-23T14:19:00.511Z,12.62
2022-09-23T14:21:35.455Z,12.50
2022-09-23T14:24:41.738Z,12.44
2022-09-23T14:27:17.833Z,12.47
2022-09-23T14:29:48.294Z,12.44
2022-09-23T14:32:21.333Z,12.39
2022-09-23T14:35:01.281Z,12.42
2022-09-23T14:38:02.440Z,12.50
2022-09-23T14:40:32.869Z,12.55
2022-09-23T14:43:16.125Z,12.60
2022-09-23T14:45:50.556Z,12.71
2022-09-23T14:48:23.096Z,12.78
2022-09-23T14:50:54.809Z,12.68
2022-09-23T14:53:24.501Z,12.60
2022-09-23T14:56:07.769Z,12.55
2022-09-23T14:59:00.949Z,12.54
2022-09-23T15:01:38.911Z,12.57
2022-09-23T15:04:28.285Z,12.56
2022-09-23T15:07:06.396Z,12.51
2022-09-23T15:09:37.934Z,12.50
2022-09-23T15:12:17.182Z,12.41
2022-09-23T15:14:50.510Z,12.35
2022-09-23T15:17:23.539Z,12.22
2022-09-23T15:19:59.795Z,12.17
2022-09-23T15:22:27.354Z,12.11
2022-09-23T15:25:08.187Z,12.06
2022-09-23T15:27:35.383Z,12.02
2022-09-23T15:30:15.441Z,11.95
2022-09-23T15:32:46.760Z,11.88
2022-09-23T15:35:22.134Z,11.85
2022-09-23T15:37:51.558Z,11.83
2022-09-23T15:40:31.175Z,11.77
2022-09-23T15:43:00.755Z,11.71
2022-09-23T15:45:40.807Z,11.60
2022-09-23T15:48:13.205Z,11.57
2022-09-23T15:50:45.562Z,11.51
2022-09-23T15:53:18.856Z,11.41
2022-09-23T15:55:46.223Z,11.32
2022-09-23T15:58:13.340Z,11.23
2022-09-23T16:00:40.303Z,11.12
2022-09-23T16:03:07.176Z,11.03
2022-09-23T16:05:37.825Z,10.90
2022-09-23T16:08:09.021Z,10.78
2022-09-23T16:10:37.496Z,10.65
2022-09-23T16:13:06.970Z,10.57
2022-09-23T16:15:34.291Z,10.47
2022-09-23T16:18:01.627Z,10.40
2022-09-23T16:20:30.108Z,10.29
2022-09-23T16:23:00.085Z,10.16
2022-09-23T16:25:29.250Z,9.99
2022-09-23T16:27:56.494Z,9.80
2022-09-23T16:30:28.156Z,9.65
2022-09-23T16:32:55.323Z,9.49
2022-09-23T16:35:24.485Z,9.39
2022-09-23T16:37:51.740Z,9.19
2022-09-23T16:40:21.113Z,9.08
2022-09-23T16:42:49.842Z,8.96
2022-09-23T16:45:18.238Z,8.83
2022-09-23T16:47:47.571Z,8.71
2022-09-23T16:50:17.299Z,8.58
2022-09-23T16:52:46.163Z,8.49
2022-09-23T16:55:14.807Z,8.41
2022-09-23T16:57:42.055Z,8.31
2022-09-23T17:00:34.097Z,8.22
2022-09-23T17:03:21.109Z,8.12
2022-09-23T17:05:49.838Z,8.00
2022-09-23T17:08:17.888Z,7.88
2022-09-23T17:10:55.068Z,7.75
2022-09-23T17:13:22.072Z,7.62
2022-09-23T17:15:49.045Z,7.51
2022-09-23T17:18:19.405Z,7.43
2022-09-23T17:21:04.979Z,7.30
2022-09-23T17:23:33.555Z,7.19
2022-09-23T17:26:01.282Z,7.06
2022-09-23T17:28:28.852Z,6.99
2022-09-23T17:30:58.143Z,6.93
2022-09-23T17:33:30.177Z,6.87
2022-09-23T17:35:59.187Z,6.85
2022-09-23T17:38:29.388Z,6.81
2022-09-23T17:41:01.065Z,6.73
2022-09-23T17:43:30.243Z,6.66
2022-09-23T17:46:02.207Z,6.62
2022-09-23T17:48:32.870Z,6.56
2022-09-23T17:51:02.243Z,6.48
2022-09-23T17:53:30.136Z,6.40
2022-09-23T17:55:58.396Z,6.38
2022-09-23T17:58:30.207Z,6.37
2022-09-23T18:00:58.060Z,6.34
2022-09-23T18:03:28.214Z,6.31
2022-09-23T18:05:55.208Z,6.28
2022-09-23T18:08:22.000Z,6.25
2022-09-23T18:10:48.999Z,6.26
2022-09-23T18:13:15.812Z,6.19
2022-09-23T18:15:42.963Z,6.17
2022-09-23T18:18:10.089Z,6.15
2022-09-23T18:20:36.882Z,6.13
2022-09-23T18:23:03.679Z,6.08
2022-09-23T18:25:40.328Z,6.06
2022-09-23T18:28:07.162Z,6.03
2022-09-23T18:30:34.153Z,5.99
2022-09-23T18:33:01.670Z,5.95
2022-09-23T18:35:28.566Z,5.95
2022-09-23T18:37:56.131Z,5.97
2022-09-23T18:40:23.009Z,5.93
2022-09-23T18:42:50.394Z,5.90
2022-09-23T18:45:17.467Z,5.86
2022-09-23T18:48:02.633Z,5.83
2022-09-23T18:50:55.686Z,5.78
2022-09-23T18:53:22.519Z,5.70
2022-09-23T18:55:49.949Z,5.65
2022-09-23T18:58:16.752Z,5.66
2022-09-23T19:00:43.618Z,5.64
2022-09-23T19:03:10.736Z,5.62
2022-09-23T19:05:37.529Z,5.60
2022-09-23T19:08:04.354Z,5.60
2022-09-23T19:10:31.344Z,5.61
2022-09-23T19:12:58.087Z,5.63
2022-09-23T19:15:24.880Z,5.65
2022-09-23T19:17:51.803Z,5.66
2022-09-23T19:20:18.596Z,5.68
2022-09-23T19:22:47.293Z,5.67
2022-09-23T19:25:14.914Z,5.67
2022-09-23T19:27:41.723Z,5.66
2022-09-23T19:30:09.335Z,5.66
2022-09-23T19:32:36.371Z,5.66
2022-09-23T19:35:03.125Z,5.69
2022-09-23T19:37:29.962Z,5.76
2022-09-23T19:39:56.902Z,5.80
2022-09-23T19:42:25.062Z,5.84
2022-09-23T19:44:53.121Z,5.92
2022-09-23T19:47:20.136Z,5.99
2022-09-23T19:49:47.438Z,6.03
2022-09-23T19:52:14.208Z,6.10
2022-09-23T19:54:41.215Z,6.14
2022-09-23T19:57:09.171Z,6.14
2022-09-23T19:59:35.910Z,6.12
2022-09-23T20:02:02.886Z,6.10
2022-09-23T20:04:29.734Z,6.07
2022-09-23T20:06:56.532Z,6.04
2022-09-23T20:09:23.532Z,6.09
2022-09-23T20:11:51.043Z,6.12
2022-09-23T20:14:19.866Z,6.13
2022-09-23T20:16:46.939Z,6.16
2022-09-23T20:19:13.811Z,6.17
2022-09-23T20:21:40.679Z,6.14
2022-09-23T20:24:09.683Z,6.17
2022-09-23T20:26:54.939Z,6.19
2022-09-23T20:29:22.862Z,6.20
2022-09-23T20:31:49.803Z,6.21
2022-09-23T20:34:16.747Z,6.26
2022-09-23T20:36:44.261Z,6.24
2022-09-23T20:39:12.478Z,6.28
2022-09-23T20:41:39.837Z,6.26
2022-09-23T20:44:14.394Z,6.32
2022-09-23T20:46:48.287Z,6.37
2022-09-23T20:49:16.837Z,6.43
2022-09-23T20:51:43.686Z,6.43
2022-09-23T20:54:12.093Z,6.47
2022-09-23T20:56:39.216Z,6.48
2022-09-23T20:59:05.987Z,6.50
2022-09-23T21:01:35.217Z,6.51
2022-09-23T21:04:04.935Z,6.51
2022-09-23T21:06:34.610Z,6.51
2022-09-23T21:09:01.740Z,6.49
2022-09-23T21:11:29.315Z,6.54
2022-09-23T21:13:56.639Z,6.57
2022-09-23T21:16:24.061Z,6.59
2022-09-23T21:18:52.042Z,6.61
2022-09-23T21:21:19.830Z,6.63
2022-09-23T21:23:47.196Z,6.61
2022-09-23T21:26:19.348Z,6.61
2022-09-23T21:28:48.633Z,6.61
2022-09-23T21:31:25.787Z,6.62
2022-09-23T21:34:01.577Z,6.62
2022-09-23T21:36:34.922Z,6.61
2022-09-23T21:39:01.887Z,6.65
2022-09-23T21:41:29.204Z,6.68
2022-09-23T21:43:56.434Z,6.69
2022-09-23T21:46:24.472Z,6.74
2022-09-23T21:48:53.875Z,6.71
2022-09-23T21:51:29.615Z,6.75
2022-09-23T21:53:58.072Z,6.74
2022-09-23T21:56:30.066Z,6.77
2022-09-23T21:58:58.444Z,6.76
2022-09-23T22:01:33.261Z,6.78
2022-09-23T22:04:08.417Z,6.78
2022-09-23T22:06:38.336Z,6.75
2022-09-23T22:09:11.020Z,6.68
2022-09-23T22:11:58.456Z,6.64
2022-09-23T22:14:26.453Z,6.58
2022-09-23T22:16:57.667Z,6.53
2022-09-23T22:19:27.116Z,6.47
2022-09-23T22:21:55.932Z,6.39
2022-09-23T22:24:22.949Z,6.34
2022-09-23T22:26:50.195Z,6.30
2022-09-23T22:29:36.053Z,6.30
2022-09-23T22:32:23.847Z,6.32
2022-09-23T22:34:52.206Z,6.31
2022-09-23T22:37:23.808Z,6.31
2022-09-23T22:39:50.569Z,6.33
2022-09-23T22:42:18.150Z,6.31
2022-09-23T22:44:46.017Z,6.32
2022-09-23T22:47:12.767Z,6.32
2022-09-23T22:49:40.079Z,6.35
2022-09-23T22:52:11.305Z,6.36
2022-09-23T22:54:38.665Z,6.34
2022-09-23T22:57:07.423Z,6.31
2022-09-23T22:59:34.853Z,6.30
2022-09-23T23:02:05.206Z,6.28
2022-09-23T23:04:33.603Z,6.27
2022-09-23T23:07:00.381Z,6.26
2022-09-23T23:09:27.146Z,6.26
2022-09-23T23:11:54.086Z,6.26
2022-09-23T23:14:20.894Z,6.26
2022-09-23T23:16:47.791Z,6.22
2022-09-23T23:19:17.631Z,6.22
2022-09-23T23:21:45.524Z,6.23
2022-09-23T23:24:23.403Z,6.21
2022-09-23T23:26:51.448Z,6.20
2022-09-23T23:29:20.580Z,6.19
2022-09-23T23:31:48.047Z,6.14
2022-09-23T23:34:18.110Z,6.11
2022-09-23T23:36:46.172Z,6.12
2022-09-23T23:39:14.298Z,6.10
2022-09-23T23:41:41.788Z,6.09
2022-09-23T23:44:08.803Z,6.13
2022-09-23T23:46:37.472Z,6.16
2022-09-23T23:49:05.038Z,6.21
2022-09-23T23:51:32.129Z,6.25
2022-09-23T23:53:59.864Z,6.28
2022-09-23T23:56:27.807Z,6.30
2022-09-23T23:58:59.450Z,6.33
